sensor_id;sensor_type;location;lat;lon;timestamp;temperature;humidity
48744;DHT22;34538;48.836;9.174;2023-12-20T00:00:20;6.90;99.90
48744;DHT22;34538;48.836;9.174;2023-12-20T00:02:49;7.00;99.90
48744;DHT22;34538;48.836;9.174;2023-12-20T00:05:16;7.00;99.90
48744;DHT22;34538;48.836;9.174;2023-12-20T00:07:43;7.00;99.90
48744;DHT22;34538;48.836;9.174;2023-12-20T00:10:10;7.00;99.90
48744;DHT22;34538;48.836;9.174;2023-12-20T00:12:39;7.00;99.90
48744;DHT22;34538;48.836;9.174;2023-12-20T00:15:07;7.00;99.90
48744;DHT22;34538;48.836;9.174;2023-12-20T00:17:34;7.00;99.90
48744;DHT22;34538;48.836;9.174;2023-12-20T00:20:03;7.00;99.90
48744;DHT22;34538;48.836;9.174;2023-12-20T00:22:31;6.90;99.90
48744;DHT22;34538;48.836;9.174;2023-12-20T00:24:58;6.90;99.90
48744;DHT22;34538;48.836;9.174;2023-12-20T00:27:25;6.90;99.90
48744;DHT22;34538;48.836;9.174;2023-12-20T00:29:52;6.90;99.90
48744;DHT22;34538;48.836;9.174;2023-12-20T00:32:19;6.90;99.90
48744;DHT22;34538;48.836;9.174;2023-12-20T00:34:46;6.90;99.90
48744;DHT22;34538;48.836;9.174;2023-12-20T00:37:14;6.80;99.90
48744;DHT22;34538;48.836;9.174;2023-12-20T00:39:42;6.80;99.90
48744;DHT22;34538;48.836;9.174;2023-12-20T00:42:09;6.80;99.90
48744;DHT22;34538;48.836;9.174;2023-12-20T00:44:36;6.70;99.90
48744;DHT22;34538;48.836;9.174;2023-12-20T00:47:03;6.70;99.90
48744;DHT22;34538;48.836;9.174;2023-12-20T00:49:30;6.60;99.90
48744;DHT22;34538;48.836;9.174;2023-12-20T00:51:57;6.60;99.90
48744;DHT22;34538;48.836;9.174;2023-12-20T00:54:26;6.50;99.90
48744;DHT22;34538;48.836;9.174;2023-12-20T00:56:52;6.50;99.90
48744;DHT22;34538;48.836;9.174;2023-12-20T00:59:20;6.50;99.90
48744;DHT22;34538;48.836;9.174;2023-12-20T01:01:47;6.40;99.90
48744;DHT22;34538;48.836;9.174;2023-12-20T01:04:13;6.30;99.90
48744;DHT22;34538;48.836;9.174;2023-12-20T01:06:40;6.30;99.90
48744;DHT22;34538;48.836;9.174;2023-12-20T01:09:07;6.30;99.90
48744;DHT22;34538;48.836;9.174;2023-12-20T01:11:35;6.20;99.90
48744;DHT22;34538;48.836;9.174;2023-12-20T01:14:02;6.20;99.90
48744;DHT22;34538;48.836;9.174;2023-12-20T01:16:29;6.20;99.90
48744;DHT22;34538;48.836;9.174;2023-12-20T01:18:56;6.20;99.90
48744;DHT22;34538;48.836;9.174;2023-12-20T01:21:23;6.10;99.90
48744;DHT22;34538;48.836;9.174;2023-12-20T01:23:50;6.10;99.90
48744;DHT22;34538;48.836;9.174;2023-12-20T01:26:17;6.10;99.90
48744;DHT22;34538;48.836;9.174;2023-12-20T01:28:45;6.10;99.90
48744;DHT22;34538;48.836;9.174;2023-12-20T01:31:12;6.10;99.90
48744;DHT22;34538;48.836;9.174;2023-12-20T01:33:39;6.10;99.90
48744;DHT22;34538;48.836;9.174;2023-12-20T01:36:06;6.10;99.90
48744;DHT22;34538;48.836;9.174;2023-12-20T01:38:33;6.10;99.90
48744;DHT22;34538;48.836;9.174;2023-12-20T01:41:00;6.00;99.90
48744;DHT22;34538;48.836;9.174;2023-12-20T01:43:27;6.00;99.90
48744;DHT22;34538;48.836;9.174;2023-12-20T01:45:56;6.00;99.90
48744;DHT22;34538;48.836;9.174;2023-12-20T01:48:24;6.00;99.90
48744;DHT22;34538;48.836;9.174;2023-12-20T01:50:52;6.00;99.90
48744;DHT22;34538;48.836;9.174;2023-12-20T01:53:21;6.00;99.90
48744;DHT22;34538;48.836;9.174;2023-12-20T01:55:49;6.00;99.90
48744;DHT22;34538;48.836;9.174;2023-12-20T01:58:17;6.00;99.90
48744;DHT22;34538;48.836;9.174;2023-12-20T02:00:45;6.00;99.90
48744;DHT22;34538;48.836;9.174;2023-12-20T02:03:14;6.00;99.90
48744;DHT22;34538;48.836;9.174;2023-12-20T02:05:41;6.00;99.90
48744;DHT22;34538;48.836;9.174;2023-12-20T02:08:08;6.00;99.90
48744;DHT22;34538;48.836;9.174;2023-12-20T02:10:35;5.90;99.90
48744;DHT22;34538;48.836;9.174;2023-12-20T02:13:02;5.90;99.90
48744;DHT22;34538;48.836;9.174;2023-12-20T02:15:30;5.90;99.90
48744;DHT22;34538;48.836;9.174;2023-12-20T02:17:57;5.80;99.90
48744;DHT22;34538;48.836;9.174;2023-12-20T02:20:25;5.90;99.90
48744;DHT22;34538;48.836;9.174;2023-12-20T02:22:53;5.80;99.90
48744;DHT22;34538;48.836;9.174;2023-12-20T02:25:20;5.80;99.90
48744;DHT22;34538;48.836;9.174;2023-12-20T02:27:48;5.70;99.90
48744;DHT22;34538;48.836;9.174;2023-12-20T02:30:15;5.80;99.90
48744;DHT22;34538;48.836;9.174;2023-12-20T02:32:42;5.70;99.90
48744;DHT22;34538;48.836;9.174;2023-12-20T02:35:09;5.70;99.90
48744;DHT22;34538;48.836;9.174;2023-12-20T02:37:36;5.80;99.90
48744;DHT22;34538;48.836;9.174;2023-12-20T02:40:06;5.70;99.90
48744;DHT22;34538;48.836;9.174;2023-12-20T02:42:34;5.70;99.90
48744;DHT22;34538;48.836;9.174;2023-12-20T02:45:00;5.70;99.90
48744;DHT22;34538;48.836;9.174;2023-12-20T02:47:27;5.70;99.90
48744;DHT22;34538;48.836;9.174;2023-12-20T02:49:55;5.70;99.90
48744;DHT22;34538;48.836;9.174;2023-12-20T02:52:23;5.70;99.90
48744;DHT22;34538;48.836;9.174;2023-12-20T02:54:50;5.80;99.90
48744;DHT22;34538;48.836;9.174;2023-12-20T02:57:18;5.80;99.90
48744;DHT22;34538;48.836;9.174;2023-12-20T02:59:45;5.80;99.90
48744;DHT22;34538;48.836;9.174;2023-12-20T03:02:12;5.90;99.90
48744;DHT22;34538;48.836;9.174;2023-12-20T03:04:39;5.90;99.90
48744;DHT22;34538;48.836;9.174;2023-12-20T03:07:06;5.90;99.90
48744;DHT22;34538;48.836;9.174;2023-12-20T03:09:33;6.00;99.90
48744;DHT22;34538;48.836;9.174;2023-12-20T03:12:00;6.00;99.90
48744;DHT22;34538;48.836;9.174;2023-12-20T03:14:29;6.00;99.90
48744;DHT22;34538;48.836;9.174;2023-12-20T03:16:56;6.00;99.90
48744;DHT22;34538;48.836;9.174;2023-12-20T03:19:23;6.00;99.90
48744;DHT22;34538;48.836;9.174;2023-12-20T03:21:50;6.00;99.90
48744;DHT22;34538;48.836;9.174;2023-12-20T03:24:19;6.00;99.90
48744;DHT22;34538;48.836;9.174;2023-12-20T03:26:46;6.00;99.90
48744;DHT22;34538;48.836;9.174;2023-12-20T03:29:13;6.00;99.90
48744;DHT22;34538;48.836;9.174;2023-12-20T03:31:42;6.00;99.90
48744;DHT22;34538;48.836;9.174;2023-12-20T03:34:09;6.00;99.90
48744;DHT22;34538;48.836;9.174;2023-12-20T03:36:36;5.90;99.90
48744;DHT22;34538;48.836;9.174;2023-12-20T03:39:04;5.90;99.90
48744;DHT22;34538;48.836;9.174;2023-12-20T03:41:31;5.90;99.90
48744;DHT22;34538;48.836;9.174;2023-12-20T03:43:59;5.90;99.90
48744;DHT22;34538;48.836;9.174;2023-12-20T03:46:25;5.90;99.90
48744;DHT22;34538;48.836;9.174;2023-12-20T03:48:54;5.80;99.90
48744;DHT22;34538;48.836;9.174;2023-12-20T03:51:21;5.90;99.90
48744;DHT22;34538;48.836;9.174;2023-12-20T03:53:48;5.80;99.90
48744;DHT22;34538;48.836;9.174;2023-12-20T03:56:15;5.80;99.90
48744;DHT22;34538;48.836;9.174;2023-12-20T03:58:42;5.80;99.90
48744;DHT22;34538;48.836;9.174;2023-12-20T04:01:09;5.80;99.90
48744;DHT22;34538;48.836;9.174;2023-12-20T04:03:38;5.70;99.90
48744;DHT22;34538;48.836;9.174;2023-12-20T04:06:07;5.70;99.90
48744;DHT22;34538;48.836;9.174;2023-12-20T04:08:34;5.70;99.90
48744;DHT22;34538;48.836;9.174;2023-12-20T04:11:01;5.70;99.90
48744;DHT22;34538;48.836;9.174;2023-12-20T04:13:28;5.70;99.90
48744;DHT22;34538;48.836;9.174;2023-12-20T04:15:54;5.70;99.90
48744;DHT22;34538;48.836;9.174;2023-12-20T04:18:21;5.70;99.90
48744;DHT22;34538;48.836;9.174;2023-12-20T04:20:48;5.70;99.90
48744;DHT22;34538;48.836;9.174;2023-12-20T04:23:18;5.70;99.90
48744;DHT22;34538;48.836;9.174;2023-12-20T04:25:46;5.70;99.90
48744;DHT22;34538;48.836;9.174;2023-12-20T04:28:13;5.70;99.90
48744;DHT22;34538;48.836;9.174;2023-12-20T04:30:41;5.70;99.90
48744;DHT22;34538;48.836;9.174;2023-12-20T04:33:08;5.70;99.90
48744;DHT22;34538;48.836;9.174;2023-12-20T04:35:35;5.70;99.90
48744;DHT22;34538;48.836;9.174;2023-12-20T04:38:02;5.70;99.90
48744;DHT22;34538;48.836;9.174;2023-12-20T04:40:30;5.70;99.90
48744;DHT22;34538;48.836;9.174;2023-12-20T04:42:57;5.70;99.90
48744;DHT22;34538;48.836;9.174;2023-12-20T04:45:24;5.70;99.90
48744;DHT22;34538;48.836;9.174;2023-12-20T04:47:51;5.70;99.90
48744;DHT22;34538;48.836;9.174;2023-12-20T04:50:19;5.70;99.90
48744;DHT22;34538;48.836;9.174;2023-12-20T04:52:47;5.70;99.90
48744;DHT22;34538;48.836;9.174;2023-12-20T04:55:14;5.70;99.90
48744;DHT22;34538;48.836;9.174;2023-12-20T04:57:42;5.80;99.90
48744;DHT22;34538;48.836;9.174;2023-12-20T05:00:10;5.70;99.90
48744;DHT22;34538;48.836;9.174;2023-12-20T05:02:38;5.70;99.90
48744;DHT22;34538;48.836;9.174;2023-12-20T05:05:05;5.80;99.90
48744;DHT22;34538;48.836;9.174;2023-12-20T05:07:32;5.80;99.90
48744;DHT22;34538;48.836;9.174;2023-12-20T05:09:59;5.80;99.90
48744;DHT22;34538;48.836;9.174;2023-12-20T05:12:26;5.80;99.90
48744;DHT22;34538;48.836;9.174;2023-12-20T05:14:54;5.80;99.90
48744;DHT22;34538;48.836;9.174;2023-12-20T05:17:21;5.80;99.90
48744;DHT22;34538;48.836;9.174;2023-12-20T05:19:48;5.80;99.90
48744;DHT22;34538;48.836;9.174;2023-12-20T05:22:15;5.90;99.90
48744;DHT22;34538;48.836;9.174;2023-12-20T05:24:42;5.90;99.90
48744;DHT22;34538;48.836;9.174;2023-12-20T05:27:09;5.90;99.90
48744;DHT22;34538;48.836;9.174;2023-12-20T05:29:36;5.90;99.90
48744;DHT22;34538;48.836;9.174;2023-12-20T05:32:05;5.90;99.90
48744;DHT22;34538;48.836;9.174;2023-12-20T05:34:32;5.90;99.90
48744;DHT22;34538;48.836;9.174;2023-12-20T05:36:59;6.00;99.90
48744;DHT22;34538;48.836;9.174;2023-12-20T05:39:27;6.00;99.90
48744;DHT22;34538;48.836;9.174;2023-12-20T05:41:54;6.00;99.90
48744;DHT22;34538;48.836;9.174;2023-12-20T05:44:21;6.00;99.90
48744;DHT22;34538;48.836;9.174;2023-12-20T05:46:48;6.00;99.90
48744;DHT22;34538;48.836;9.174;2023-12-20T05:49:16;6.00;99.90
48744;DHT22;34538;48.836;9.174;2023-12-20T05:51:43;6.00;99.90
48744;DHT22;34538;48.836;9.174;2023-12-20T05:54:10;6.00;99.90
48744;DHT22;34538;48.836;9.174;2023-12-20T05:56:37;5.90;99.90
48744;DHT22;34538;48.836;9.174;2023-12-20T05:59:04;6.00;99.90
48744;DHT22;34538;48.836;9.174;2023-12-20T06:01:31;5.90;99.90
48744;DHT22;34538;48.836;9.174;2023-12-20T06:03:57;5.90;99.90
48744;DHT22;34538;48.836;9.174;2023-12-20T06:06:26;5.90;99.90
48744;DHT22;34538;48.836;9.174;2023-12-20T06:08:52;5.90;99.90
48744;DHT22;34538;48.836;9.174;2023-12-20T06:11:19;5.90;99.90
48744;DHT22;34538;48.836;9.174;2023-12-20T06:13:46;5.80;99.90
48744;DHT22;34538;48.836;9.174;2023-12-20T06:16:14;5.90;99.90
48744;DHT22;34538;48.836;9.174;2023-12-20T06:18:41;5.90;99.90
48744;DHT22;34538;48.836;9.174;2023-12-20T06:21:08;5.90;99.90
48744;DHT22;34538;48.836;9.174;2023-12-20T06:23:39;5.90;99.90
48744;DHT22;34538;48.836;9.174;2023-12-20T06:26:06;5.90;99.90
48744;DHT22;34538;48.836;9.174;2023-12-20T06:28:34;5.90;99.90
48744;DHT22;34538;48.836;9.174;2023-12-20T06:31:00;5.90;99.90
48744;DHT22;34538;48.836;9.174;2023-12-20T06:33:28;5.90;99.90
48744;DHT22;34538;48.836;9.174;2023-12-20T06:35:56;5.90;99.90
48744;DHT22;34538;48.836;9.174;2023-12-20T06:38:23;5.90;99.90
48744;DHT22;34538;48.836;9.174;2023-12-20T06:40:52;5.90;99.90
48744;DHT22;34538;48.836;9.174;2023-12-20T06:43:18;5.90;99.90
48744;DHT22;34538;48.836;9.174;2023-12-20T06:45:45;6.00;99.90
48744;DHT22;34538;48.836;9.174;2023-12-20T06:48:12;6.00;99.90
48744;DHT22;34538;48.836;9.174;2023-12-20T06:50:40;6.00;99.90
48744;DHT22;34538;48.836;9.174;2023-12-20T06:53:07;5.90;99.90
48744;DHT22;34538;48.836;9.174;2023-12-20T06:55:35;6.00;99.90
48744;DHT22;34538;48.836;9.174;2023-12-20T06:58:04;6.00;99.90
48744;DHT22;34538;48.836;9.174;2023-12-20T07:00:32;6.00;99.90
48744;DHT22;34538;48.836;9.174;2023-12-20T07:03:00;6.00;99.90
48744;DHT22;34538;48.836;9.174;2023-12-20T07:05:27;6.00;99.90
48744;DHT22;34538;48.836;9.174;2023-12-20T07:07:54;6.00;99.90
48744;DHT22;34538;48.836;9.174;2023-12-20T07:10:21;6.00;99.90
48744;DHT22;34538;48.836;9.174;2023-12-20T07:12:48;6.10;99.90
48744;DHT22;34538;48.836;9.174;2023-12-20T07:15:18;6.10;99.90
48744;DHT22;34538;48.836;9.174;2023-12-20T07:17:45;6.10;99.90
48744;DHT22;34538;48.836;9.174;2023-12-20T07:20:12;6.10;99.90
48744;DHT22;34538;48.836;9.174;2023-12-20T07:22:38;6.10;99.90
48744;DHT22;34538;48.836;9.174;2023-12-20T07:25:06;6.10;99.90
48744;DHT22;34538;48.836;9.174;2023-12-20T07:27:33;6.10;99.90
48744;DHT22;34538;48.836;9.174;2023-12-20T07:30:00;6.10;99.90
48744;DHT22;34538;48.836;9.174;2023-12-20T07:32:28;6.10;99.90
48744;DHT22;34538;48.836;9.174;2023-12-20T07:34:55;6.10;99.90
48744;DHT22;34538;48.836;9.174;2023-12-20T07:37:22;6.10;99.90
48744;DHT22;34538;48.836;9.174;2023-12-20T07:39:49;6.10;99.90
48744;DHT22;34538;48.836;9.174;2023-12-20T07:42:16;6.10;99.90
48744;DHT22;34538;48.836;9.174;2023-12-20T07:44:43;6.10;99.90
48744;DHT22;34538;48.836;9.174;2023-12-20T07:47:10;6.00;99.90
48744;DHT22;34538;48.836;9.174;2023-12-20T07:49:42;6.10;99.90
48744;DHT22;34538;48.836;9.174;2023-12-20T07:52:09;6.00;99.90
48744;DHT22;34538;48.836;9.174;2023-12-20T07:54:36;6.00;99.90
48744;DHT22;34538;48.836;9.174;2023-12-20T07:57:03;6.00;99.90
48744;DHT22;34538;48.836;9.174;2023-12-20T07:59:30;5.90;99.90
48744;DHT22;34538;48.836;9.174;2023-12-20T08:01:57;5.90;99.90
48744;DHT22;34538;48.836;9.174;2023-12-20T08:04:24;5.80;99.90
48744;DHT22;34538;48.836;9.174;2023-12-20T08:06:52;5.80;99.90
48744;DHT22;34538;48.836;9.174;2023-12-20T08:09:19;5.70;99.90
48744;DHT22;34538;48.836;9.174;2023-12-20T08:11:46;5.70;99.90
48744;DHT22;34538;48.836;9.174;2023-12-20T08:14:13;5.60;99.90
48744;DHT22;34538;48.836;9.174;2023-12-20T08:16:40;5.60;99.90
48744;DHT22;34538;48.836;9.174;2023-12-20T08:19:07;5.50;99.90
48744;DHT22;34538;48.836;9.174;2023-12-20T08:21:34;5.50;99.90
48744;DHT22;34538;48.836;9.174;2023-12-20T08:24:02;5.40;99.90
48744;DHT22;34538;48.836;9.174;2023-12-20T08:26:29;5.40;99.90
48744;DHT22;34538;48.836;9.174;2023-12-20T08:28:56;5.40;99.90
48744;DHT22;34538;48.836;9.174;2023-12-20T08:31:23;5.30;99.90
48744;DHT22;34538;48.836;9.174;2023-12-20T08:33:51;5.30;99.90
48744;DHT22;34538;48.836;9.174;2023-12-20T08:36:19;5.30;99.90
48744;DHT22;34538;48.836;9.174;2023-12-20T08:38:47;5.30;99.90
48744;DHT22;34538;48.836;9.174;2023-12-20T08:41:16;5.20;99.90
48744;DHT22;34538;48.836;9.174;2023-12-20T08:43:42;5.20;99.90
48744;DHT22;34538;48.836;9.174;2023-12-20T08:46:10;5.20;99.90
48744;DHT22;34538;48.836;9.174;2023-12-20T08:48:37;5.20;99.90
48744;DHT22;34538;48.836;9.174;2023-12-20T08:51:04;5.20;99.90
48744;DHT22;34538;48.836;9.174;2023-12-20T08:53:32;5.20;99.90
48744;DHT22;34538;48.836;9.174;2023-12-20T08:56:00;5.20;99.90
48744;DHT22;34538;48.836;9.174;2023-12-20T08:58:29;5.30;99.90
48744;DHT22;34538;48.836;9.174;2023-12-20T09:00:55;5.30;99.90
48744;DHT22;34538;48.836;9.174;2023-12-20T09:03:23;5.30;99.90
48744;DHT22;34538;48.836;9.174;2023-12-20T09:05:50;5.40;99.90
48744;DHT22;34538;48.836;9.174;2023-12-20T09:08:16;5.50;99.90
48744;DHT22;34538;48.836;9.174;2023-12-20T09:10:43;5.40;99.90
48744;DHT22;34538;48.836;9.174;2023-12-20T09:13:11;5.50;99.90
48744;DHT22;34538;48.836;9.174;2023-12-20T09:15:40;5.50;99.90
48744;DHT22;34538;48.836;9.174;2023-12-20T09:18:07;5.50;99.90
48744;DHT22;34538;48.836;9.174;2023-12-20T09:20:35;5.60;99.90
48744;DHT22;34538;48.836;9.174;2023-12-20T09:23:03;5.70;99.90
48744;DHT22;34538;48.836;9.174;2023-12-20T09:25:30;5.70;99.90
48744;DHT22;34538;48.836;9.174;2023-12-20T09:27:57;5.70;99.90
48744;DHT22;34538;48.836;9.174;2023-12-20T09:30:24;5.70;99.90
48744;DHT22;34538;48.836;9.174;2023-12-20T09:32:52;5.80;99.90
48744;DHT22;34538;48.836;9.174;2023-12-20T09:35:19;5.80;99.90
48744;DHT22;34538;48.836;9.174;2023-12-20T09:37:46;5.80;99.90
48744;DHT22;34538;48.836;9.174;2023-12-20T09:40:13;5.90;99.90
48744;DHT22;34538;48.836;9.174;2023-12-20T09:42:48;5.90;99.90
48744;DHT22;34538;48.836;9.174;2023-12-20T09:45:20;5.90;99.90
48744;DHT22;34538;48.836;9.174;2023-12-20T09:47:48;5.90;99.90
48744;DHT22;34538;48.836;9.174;2023-12-20T09:50:18;6.00;99.90
48744;DHT22;34538;48.836;9.174;2023-12-20T09:52:49;6.00;99.90
48744;DHT22;34538;48.836;9.174;2023-12-20T09:55:17;6.10;99.90
48744;DHT22;34538;48.836;9.174;2023-12-20T09:57:45;6.10;99.90
48744;DHT22;34538;48.836;9.174;2023-12-20T10:00:13;6.20;99.90
48744;DHT22;34538;48.836;9.174;2023-12-20T10:02:45;6.20;99.90
48744;DHT22;34538;48.836;9.174;2023-12-20T10:05:17;6.20;99.90
48744;DHT22;34538;48.836;9.174;2023-12-20T10:07:46;6.20;99.90
48744;DHT22;34538;48.836;9.174;2023-12-20T10:10:13;6.30;99.90
48744;DHT22;34538;48.836;9.174;2023-12-20T10:12:40;6.30;99.90
48744;DHT22;34538;48.836;9.174;2023-12-20T10:15:08;6.30;99.90
48744;DHT22;34538;48.836;9.174;2023-12-20T10:17:36;6.30;99.90
48744;DHT22;34538;48.836;9.174;2023-12-20T10:20:04;6.30;99.90
48744;DHT22;34538;48.836;9.174;2023-12-20T10:22:37;6.30;99.90
48744;DHT22;34538;48.836;9.174;2023-12-20T10:25:04;6.20;99.90
48744;DHT22;34538;48.836;9.174;2023-12-20T10:27:31;6.30;99.90
48744;DHT22;34538;48.836;9.174;2023-12-20T10:29:59;6.20;99.90
48744;DHT22;34538;48.836;9.174;2023-12-20T10:32:27;6.20;99.90
48744;DHT22;34538;48.836;9.174;2023-12-20T10:34:54;6.20;99.90
48744;DHT22;34538;48.836;9.174;2023-12-20T10:37:22;6.20;99.90
48744;DHT22;34538;48.836;9.174;2023-12-20T10:39:52;6.20;99.90
48744;DHT22;34538;48.836;9.174;2023-12-20T10:42:22;6.20;99.90
48744;DHT22;34538;48.836;9.174;2023-12-20T10:44:49;6.20;99.90
48744;DHT22;34538;48.836;9.174;2023-12-20T10:47:17;6.20;99.90
48744;DHT22;34538;48.836;9.174;2023-12-20T10:49:45;6.30;99.90
48744;DHT22;34538;48.836;9.174;2023-12-20T10:52:12;6.30;99.90
48744;DHT22;34538;48.836;9.174;2023-12-20T10:54:40;6.40;99.90
48744;DHT22;34538;48.836;9.174;2023-12-20T10:57:08;6.40;99.90
48744;DHT22;34538;48.836;9.174;2023-12-20T10:59:37;6.50;99.90
48744;DHT22;34538;48.836;9.174;2023-12-20T11:02:05;6.50;99.90
48744;DHT22;34538;48.836;9.174;2023-12-20T11:04:39;6.60;99.90
48744;DHT22;34538;48.836;9.174;2023-12-20T11:07:17;6.70;99.90
48744;DHT22;34538;48.836;9.174;2023-12-20T11:09:52;6.80;99.90
48744;DHT22;34538;48.836;9.174;2023-12-20T11:12:32;6.80;99.90
48744;DHT22;34538;48.836;9.174;2023-12-20T11:15:00;6.90;99.90
48744;DHT22;34538;48.836;9.174;2023-12-20T11:17:31;6.90;99.90
48744;DHT22;34538;48.836;9.174;2023-12-20T11:20:07;7.00;99.90
48744;DHT22;34538;48.836;9.174;2023-12-20T11:22:36;7.00;99.90
48744;DHT22;34538;48.836;9.174;2023-12-20T11:25:06;7.00;99.90
48744;DHT22;34538;48.836;9.174;2023-12-20T11:27:35;7.00;99.90
48744;DHT22;34538;48.836;9.174;2023-12-20T11:30:03;7.00;99.90
48744;DHT22;34538;48.836;9.174;2023-12-20T11:32:34;7.00;99.90
48744;DHT22;34538;48.836;9.174;2023-12-20T11:35:17;7.10;99.90
48744;DHT22;34538;48.836;9.174;2023-12-20T11:37:45;7.00;99.90
48744;DHT22;34538;48.836;9.174;2023-12-20T11:40:15;7.00;99.90
48744;DHT22;34538;48.836;9.174;2023-12-20T11:42:45;7.00;99.90
48744;DHT22;34538;48.836;9.174;2023-12-20T11:45:14;7.00;99.90
48744;DHT22;34538;48.836;9.174;2023-12-20T11:47:43;7.00;99.90
48744;DHT22;34538;48.836;9.174;2023-12-20T11:50:10;7.00;99.90
48744;DHT22;34538;48.836;9.174;2023-12-20T11:52:37;7.00;99.90
48744;DHT22;34538;48.836;9.174;2023-12-20T11:55:05;7.00;99.90
48744;DHT22;34538;48.836;9.174;2023-12-20T11:57:33;7.00;99.90
48744;DHT22;34538;48.836;9.174;2023-12-20T12:00:02;7.00;99.90
48744;DHT22;34538;48.836;9.174;2023-12-20T12:02:37;6.90;99.90
48744;DHT22;34538;48.836;9.174;2023-12-20T12:05:05;6.90;99.90
48744;DHT22;34538;48.836;9.174;2023-12-20T12:07:34;6.90;99.90
48744;DHT22;34538;48.836;9.174;2023-12-20T12:10:01;6.90;99.90
48744;DHT22;34538;48.836;9.174;2023-12-20T12:12:29;7.00;99.90
48744;DHT22;34538;48.836;9.174;2023-12-20T12:14:58;7.00;99.90
48744;DHT22;34538;48.836;9.174;2023-12-20T12:17:26;7.00;99.90
48744;DHT22;34538;48.836;9.174;2023-12-20T12:20:02;7.00;99.90
48744;DHT22;34538;48.836;9.174;2023-12-20T12:22:30;7.10;99.90
48744;DHT22;34538;48.836;9.174;2023-12-20T12:24:59;7.10;99.90
48744;DHT22;34538;48.836;9.174;2023-12-20T12:27:35;7.20;99.90
48744;DHT22;34538;48.836;9.174;2023-12-20T12:30:05;7.10;99.90
48744;DHT22;34538;48.836;9.174;2023-12-20T12:32:34;7.20;99.90
48744;DHT22;34538;48.836;9.174;2023-12-20T12:35:03;7.20;99.90
48744;DHT22;34538;48.836;9.174;2023-12-20T12:37:33;7.10;99.90
48744;DHT22;34538;48.836;9.174;2023-12-20T12:40:01;7.10;99.90
48744;DHT22;34538;48.836;9.174;2023-12-20T12:42:28;7.20;99.90
48744;DHT22;34538;48.836;9.174;2023-12-20T12:44:55;7.10;99.90
48744;DHT22;34538;48.836;9.174;2023-12-20T12:47:22;7.20;99.90
48744;DHT22;34538;48.836;9.174;2023-12-20T12:49:52;7.20;99.90
48744;DHT22;34538;48.836;9.174;2023-12-20T12:52:19;7.30;99.90
48744;DHT22;34538;48.836;9.174;2023-12-20T12:54:46;7.30;99.90
48744;DHT22;34538;48.836;9.174;2023-12-20T12:57:14;7.30;99.90
48744;DHT22;34538;48.836;9.174;2023-12-20T12:59:41;7.30;99.90
48744;DHT22;34538;48.836;9.174;2023-12-20T13:02:08;7.30;99.90
48744;DHT22;34538;48.836;9.174;2023-12-20T13:04:35;7.30;99.90
48744;DHT22;34538;48.836;9.174;2023-12-20T13:07:04;7.30;99.90
48744;DHT22;34538;48.836;9.174;2023-12-20T13:09:31;7.20;99.90
48744;DHT22;34538;48.836;9.174;2023-12-20T13:11:58;7.20;99.90
48744;DHT22;34538;48.836;9.174;2023-12-20T13:14:25;7.10;99.90
48744;DHT22;34538;48.836;9.174;2023-12-20T13:16:52;7.10;99.90
48744;DHT22;34538;48.836;9.174;2023-12-20T13:19:19;7.10;99.90
48744;DHT22;34538;48.836;9.174;2023-12-20T13:21:46;7.00;99.90
48744;DHT22;34538;48.836;9.174;2023-12-20T13:24:15;7.00;99.90
48744;DHT22;34538;48.836;9.174;2023-12-20T13:26:42;7.10;99.90
48744;DHT22;34538;48.836;9.174;2023-12-20T13:29:09;7.10;99.90
48744;DHT22;34538;48.836;9.174;2023-12-20T13:31:37;7.20;99.90
48744;DHT22;34538;48.836;9.174;2023-12-20T13:34:05;7.20;99.90
48744;DHT22;34538;48.836;9.174;2023-12-20T13:36:33;7.20;99.90
48744;DHT22;34538;48.836;9.174;2023-12-20T13:38:59;7.20;99.90
48744;DHT22;34538;48.836;9.174;2023-12-20T13:41:29;7.20;99.90
48744;DHT22;34538;48.836;9.174;2023-12-20T13:43:56;7.20;99.90
48744;DHT22;34538;48.836;9.174;2023-12-20T13:46:23;7.20;99.90
48744;DHT22;34538;48.836;9.174;2023-12-20T13:48:50;7.20;99.90
48744;DHT22;34538;48.836;9.174;2023-12-20T13:51:17;7.20;99.90
48744;DHT22;34538;48.836;9.174;2023-12-20T13:53:44;7.20;99.90
48744;DHT22;34538;48.836;9.174;2023-12-20T13:56:11;7.20;99.90
48744;DHT22;34538;48.836;9.174;2023-12-20T13:58:39;7.20;99.90
48744;DHT22;34538;48.836;9.174;2023-12-20T14:01:07;7.10;99.90
48744;DHT22;34538;48.836;9.174;2023-12-20T14:03:34;7.10;99.90
48744;DHT22;34538;48.836;9.174;2023-12-20T14:06:01;7.00;99.90
48744;DHT22;34538;48.836;9.174;2023-12-20T14:08:28;7.00;99.90
48744;DHT22;34538;48.836;9.174;2023-12-20T14:10:55;6.90;99.90
48744;DHT22;34538;48.836;9.174;2023-12-20T14:13:22;6.90;99.90
48744;DHT22;34538;48.836;9.174;2023-12-20T14:15:50;6.90;99.90
48744;DHT22;34538;48.836;9.174;2023-12-20T14:18:17;6.90;99.90
48744;DHT22;34538;48.836;9.174;2023-12-20T14:20:44;6.80;99.90
48744;DHT22;34538;48.836;9.174;2023-12-20T14:23:12;6.70;99.90
48744;DHT22;34538;48.836;9.174;2023-12-20T14:25:41;6.70;99.90
48744;DHT22;34538;48.836;9.174;2023-12-20T14:28:08;6.70;99.90
48744;DHT22;34538;48.836;9.174;2023-12-20T14:30:36;6.60;99.90
48744;DHT22;34538;48.836;9.174;2023-12-20T14:33:05;6.60;99.90
48744;DHT22;34538;48.836;9.174;2023-12-20T14:35:32;6.50;99.90
48744;DHT22;34538;48.836;9.174;2023-12-20T14:37:59;6.50;99.90
48744;DHT22;34538;48.836;9.174;2023-12-20T14:40:26;6.40;99.90
48744;DHT22;34538;48.836;9.174;2023-12-20T14:42:53;6.40;99.90
48744;DHT22;34538;48.836;9.174;2023-12-20T14:45:20;6.40;99.90
48744;DHT22;34538;48.836;9.174;2023-12-20T14:47:47;6.30;99.90
48744;DHT22;34538;48.836;9.174;2023-12-20T14:50:16;6.30;99.90
48744;DHT22;34538;48.836;9.174;2023-12-20T14:52:44;6.30;99.90
48744;DHT22;34538;48.836;9.174;2023-12-20T14:55:12;6.30;99.90
48744;DHT22;34538;48.836;9.174;2023-12-20T14:57:39;6.30;99.90
48744;DHT22;34538;48.836;9.174;2023-12-20T15:00:07;6.20;99.90
48744;DHT22;34538;48.836;9.174;2023-12-20T15:02:34;6.20;99.90
48744;DHT22;34538;48.836;9.174;2023-12-20T15:05:01;6.20;99.90
48744;DHT22;34538;48.836;9.174;2023-12-20T15:07:30;6.10;99.90
48744;DHT22;34538;48.836;9.174;2023-12-20T15:09:57;6.10;99.90
48744;DHT22;34538;48.836;9.174;2023-12-20T15:12:24;6.00;99.90
48744;DHT22;34538;48.836;9.174;2023-12-20T15:14:51;6.00;99.90
48744;DHT22;34538;48.836;9.174;2023-12-20T15:17:17;6.00;99.90
48744;DHT22;34538;48.836;9.174;2023-12-20T15:19:44;5.90;99.90
48744;DHT22;34538;48.836;9.174;2023-12-20T15:22:12;5.90;99.90
48744;DHT22;34538;48.836;9.174;2023-12-20T15:24:40;5.80;99.90
48744;DHT22;34538;48.836;9.174;2023-12-20T15:27:09;5.80;99.90
48744;DHT22;34538;48.836;9.174;2023-12-20T15:29:37;5.80;99.90
48744;DHT22;34538;48.836;9.174;2023-12-20T15:32:05;5.80;99.90
48744;DHT22;34538;48.836;9.174;2023-12-20T15:34:31;5.80;99.90
48744;DHT22;34538;48.836;9.174;2023-12-20T15:36:59;5.80;99.90
48744;DHT22;34538;48.836;9.174;2023-12-20T15:39:25;5.90;99.90
48744;DHT22;34538;48.836;9.174;2023-12-20T15:41:54;5.90;99.90
48744;DHT22;34538;48.836;9.174;2023-12-20T15:44:21;5.90;99.90
48744;DHT22;34538;48.836;9.174;2023-12-20T15:46:48;5.90;99.90